createdAt,value
2018-02-19T00:00:36.595Z,81.20
2018-02-19T00:03:05.124Z,82.77
2018-02-19T00:05:33.610Z,85.37
2018-02-19T00:08:02.143Z,79.70
2018-02-19T00:10:30.616Z,86.10
2018-02-19T00:12:59.251Z,90.47
2018-02-19T00:15:27.777Z,91.47
2018-02-19T00:17:56.270Z,97.17
2018-02-19T00:20:24.770Z,93.23
2018-02-19T00:22:53.258Z,92.13
2018-02-19T00:25:21.770Z,90.33
2018-02-19T00:27:50.283Z,88.23
2018-02-19T00:30:18.796Z,85.57
2018-02-19T00:32:47.270Z,84.07
2018-02-19T00:35:15.763Z,88.40
2018-02-19T00:37:44.235Z,88.47
2018-02-19T00:40:12.715Z,85.43
2018-02-19T00:42:41.237Z,83.00
2018-02-19T00:45:09.710Z,81.90
2018-02-19T00:47:38.161Z,81.60
2018-02-19T00:50:06.672Z,86.10
2018-02-19T00:52:35.142Z,84.37
2018-02-19T00:55:03.637Z,82.10
2018-02-19T00:57:32.124Z,85.30
2018-02-19T01:00:00.633Z,81.20
2018-02-19T01:02:29.194Z,79.63
2018-02-19T01:04:57.666Z,82.23
2018-02-19T01:07:26.130Z,85.13
2018-02-19T01:09:54.637Z,91.17
2018-02-19T01:12:23.184Z,91.00
2018-02-19T01:14:51.671Z,96.90
2018-02-19T01:17:20.170Z,96.63
2018-02-19T01:19:48.638Z,98.07
2018-02-19T01:22:17.150Z,94.07
2018-02-19T01:24:45.636Z,95.13
2018-02-19T01:27:14.157Z,93.23
2018-02-19T01:29:42.629Z,95.13
2018-02-19T01:32:11.175Z,96.60
2018-02-19T01:34:39.732Z,96.57
2018-02-19T01:37:08.206Z,97.10
2018-02-19T01:39:36.737Z,96.73
2018-02-19T01:42:05.209Z,93.80
2018-02-19T01:44:33.715Z,92.90
2018-02-19T01:47:02.230Z,89.10
2018-02-19T01:49:30.739Z,91.23
2018-02-19T01:51:59.246Z,93.30
2018-02-19T01:54:27.747Z,95.23
2018-02-19T01:56:56.227Z,97.97
2018-02-19T01:59:24.738Z,96.07
2018-02-19T02:01:53.210Z,97.20
2018-02-19T02:04:21.765Z,93.93
2018-02-19T02:06:50.258Z,95.70
2018-02-19T02:09:18.726Z,97.70
2018-02-19T02:11:47.252Z,94.67
2018-02-19T02:14:15.739Z,94.93
2018-02-19T02:16:44.214Z,95.83
2018-02-19T02:19:12.752Z,95.60
2018-02-19T02:21:41.273Z,94.33
2018-02-19T02:24:09.790Z,96.80
2018-02-19T02:26:38.295Z,97.57
2018-02-19T02:29:06.819Z,99.73
2018-02-19T02:31:35.303Z,99.40
2018-02-19T02:34:03.826Z,96.23
2018-02-19T02:36:32.288Z,99.17
2018-02-19T02:39:00.753Z,95.97
2018-02-19T02:41:29.264Z,101.03
2018-02-19T02:43:57.748Z,101.63
2018-02-19T02:46:26.291Z,104.93
2018-02-19T02:48:54.776Z,101.90
2018-02-19T02:51:23.293Z,94.90
2018-02-19T02:53:51.778Z,88.07
2018-02-19T02:56:20.249Z,92.77
2018-02-19T02:58:48.754Z,91.23
2018-02-19T03:01:17.255Z,91.63
2018-02-19T03:03:45.775Z,92.63
2018-02-19T03:06:14.262Z,92.10
2018-02-19T03:08:42.836Z,91.93
2018-02-19T03:11:11.354Z,89.60
2018-02-19T03:13:39.910Z,95.43
2018-02-19T03:16:08.406Z,94.13
2018-02-19T03:18:36.934Z,100.70
2018-02-19T03:21:05.462Z,100.80
2018-02-19T03:23:33.974Z,103.80
2018-02-19T03:26:02.610Z,102.00
2018-02-19T03:28:31.118Z,100.70
2018-02-19T03:30:59.603Z,106.83
2018-02-19T03:33:28.091Z,105.13
2018-02-19T03:35:56.662Z,102.17
2018-02-19T03:38:25.138Z,103.87
2018-02-19T03:40:53.609Z,101.10
2018-02-19T03:43:22.136Z,99.40
2018-02-19T03:45:50.664Z,102.57
2018-02-19T03:48:19.232Z,100.77
2018-02-19T03:50:47.714Z,100.37
2018-02-19T03:53:16.226Z,103.97
2018-02-19T03:55:44.725Z,102.00
2018-02-19T03:58:13.238Z,102.03
2018-02-19T04:00:41.730Z,101.23
2018-02-19T04:03:10.282Z,98.40
2018-02-19T04:05:38.749Z,98.03
2018-02-19T04:08:07.255Z,101.27
2018-02-19T04:10:35.738Z,99.80
2018-02-19T04:13:04.246Z,97.77
2018-02-19T04:15:33.512Z,95.27
2018-02-19T04:18:02.042Z,93.90
2018-02-19T04:20:30.520Z,98.60
2018-02-19T04:22:58.983Z,93.77
2018-02-19T04:25:27.494Z,91.67
2018-02-19T04:27:56.023Z,91.03
2018-02-19T04:30:24.494Z,91.93
2018-02-19T04:32:52.997Z,90.00
2018-02-19T04:35:21.565Z,88.20
2018-02-19T04:37:50.050Z,85.33
2018-02-19T04:40:18.567Z,86.30
2018-02-19T04:42:47.077Z,85.97
2018-02-19T04:45:18.961Z,87.00
2018-02-19T04:47:47.443Z,103.70
2018-02-19T04:50:15.932Z,121.37
2018-02-19T04:52:44.459Z,84.60
2018-02-19T04:55:12.938Z,67.13
2018-02-19T04:57:41.451Z,66.50
2018-02-19T05:00:09.963Z,62.47
2018-02-19T05:02:38.435Z,64.10
2018-02-19T05:05:06.916Z,63.27
2018-02-19T05:07:35.448Z,64.30
2018-02-19T05:10:03.978Z,55.43
2018-02-19T05:12:32.492Z,49.80
2018-02-19T05:15:00.958Z,49.47
2018-02-19T05:17:29.462Z,48.33
2018-02-19T05:19:57.951Z,48.57
2018-02-19T05:22:26.466Z,46.63
2018-02-19T05:24:54.930Z,43.77
2018-02-19T05:27:23.399Z,40.83
2018-02-19T05:29:51.914Z,41.60
2018-02-19T05:32:20.378Z,41.43
2018-02-19T05:34:48.862Z,42.53
2018-02-19T05:37:17.334Z,42.77
2018-02-19T05:39:45.886Z,43.67
2018-02-19T05:42:14.350Z,40.20
2018-02-19T05:44:42.866Z,40.90
2018-02-19T05:47:11.370Z,42.90
2018-02-19T05:49:39.918Z,40.73
2018-02-19T05:52:08.418Z,39.77
2018-02-19T05:54:36.974Z,38.93
2018-02-19T05:57:05.446Z,42.13
2018-02-19T05:59:33.959Z,43.63
2018-02-19T06:02:02.442Z,41.63
2018-02-19T06:04:30.909Z,40.77
2018-02-19T06:06:59.556Z,39.93
2018-02-19T06:09:28.380Z,38.90
2018-02-19T06:11:56.906Z,38.17
2018-02-19T06:14:25.409Z,39.37
2018-02-19T06:16:53.882Z,38.53
2018-02-19T06:19:22.454Z,39.83
2018-02-19T06:21:51.396Z,39.40
2018-02-19T06:24:20.061Z,40.53
2018-02-19T06:26:48.585Z,40.63
2018-02-19T06:29:17.058Z,41.10
2018-02-19T06:31:46.946Z,41.73
2018-02-19T06:34:15.418Z,39.13
2018-02-19T06:36:43.889Z,38.80
2018-02-19T06:39:12.650Z,39.70
2018-02-19T06:41:41.149Z,39.40
2018-02-19T06:44:09.710Z,38.80
2018-02-19T06:46:38.192Z,41.67
2018-02-19T06:49:06.672Z,40.40
2018-02-19T06:51:35.143Z,42.10
2018-02-19T06:54:03.681Z,43.27
2018-02-19T06:56:32.513Z,39.37
2018-02-19T06:59:01.005Z,40.57
2018-02-19T07:01:29.475Z,38.17
2018-02-19T07:03:57.970Z,36.10
2018-02-19T07:06:26.470Z,36.63
2018-02-19T07:08:54.982Z,39.80
2018-02-19T07:11:23.446Z,37.10
2018-02-19T07:13:51.960Z,50.80
2018-02-19T07:16:20.443Z,39.10
2018-02-19T07:18:48.950Z,36.07
2018-02-19T07:21:17.418Z,34.03
2018-02-19T07:23:45.913Z,33.33
2018-02-19T07:26:14.430Z,33.47
2018-02-19T07:28:42.916Z,32.73
2018-02-19T07:31:11.422Z,30.80
2018-02-19T07:33:39.886Z,33.83
2018-02-19T07:36:08.414Z,32.00
2018-02-19T07:38:36.933Z,34.67
2018-02-19T07:41:05.453Z,35.20
2018-02-19T07:43:34.030Z,31.47
2018-02-19T07:46:02.498Z,34.07
2018-02-19T07:48:31.046Z,33.27
2018-02-19T07:50:59.550Z,31.17
2018-02-19T07:53:28.032Z,33.53
2018-02-19T07:55:56.534Z,31.67
2018-02-19T07:58:25.038Z,30.20
2018-02-19T08:00:53.552Z,29.47
2018-02-19T08:03:22.062Z,28.00
2018-02-19T08:05:50.522Z,26.23
2018-02-19T08:08:19.011Z,27.90
2018-02-19T08:10:47.522Z,27.07
2018-02-19T08:13:15.995Z,25.37
2018-02-19T08:15:44.498Z,27.50
2018-02-19T08:18:12.961Z,27.80
2018-02-19T08:20:41.469Z,27.73
2018-02-19T08:23:09.939Z,28.03
2018-02-19T08:25:38.410Z,28.00
2018-02-19T08:28:06.952Z,24.80
2018-02-19T08:30:35.430Z,26.50
2018-02-19T08:33:03.954Z,27.80
2018-02-19T08:35:32.422Z,26.60
2018-02-19T08:38:00.951Z,26.13
2018-02-19T08:40:29.444Z,26.43
2018-02-19T08:42:57.906Z,25.03
2018-02-19T08:45:26.406Z,26.37
2018-02-19T08:47:54.905Z,24.67
2018-02-19T08:50:23.449Z,24.70
2018-02-19T08:52:51.982Z,25.17
2018-02-19T08:55:20.463Z,25.77
2018-02-19T08:57:48.938Z,25.47
2018-02-19T09:00:17.471Z,29.77
2018-02-19T09:02:45.974Z,24.30
2018-02-19T09:05:14.466Z,24.97
2018-02-19T09:07:43.000Z,25.97
2018-02-19T09:10:11.498Z,28.13
2018-02-19T09:12:39.964Z,29.30
2018-02-19T09:15:08.480Z,29.63
2018-02-19T09:17:36.986Z,27.27
2018-02-19T09:20:05.499Z,25.63
2018-02-19T09:22:33.980Z,25.90
2018-02-19T09:25:02.614Z,25.07
2018-02-19T09:27:31.126Z,25.93
2018-02-19T09:29:59.602Z,24.57
2018-02-19T09:32:28.114Z,25.40
2018-02-19T09:34:56.598Z,25.20
2018-02-19T09:37:25.114Z,26.33
2018-02-19T09:39:53.638Z,26.70
2018-02-19T09:42:22.143Z,26.70
2018-02-19T09:44:50.650Z,25.20
2018-02-19T09:47:19.178Z,24.47
2018-02-19T09:49:47.651Z,26.17
2018-02-19T09:52:16.124Z,25.87
2018-02-19T09:54:44.612Z,23.77
2018-02-19T09:57:13.120Z,25.03
2018-02-19T09:59:41.583Z,27.27
2018-02-19T10:02:10.063Z,25.97
2018-02-19T10:04:38.562Z,27.83
2018-02-19T10:07:07.061Z,26.33
2018-02-19T10:09:35.523Z,26.50
2018-02-19T10:12:04.064Z,25.23
2018-02-19T10:14:32.590Z,24.80
2018-02-19T10:17:01.075Z,24.17
2018-02-19T10:19:29.597Z,24.03
2018-02-19T10:21:58.062Z,24.00
2018-02-19T10:24:26.566Z,24.90
2018-02-19T10:26:55.038Z,24.40
2018-02-19T10:29:23.550Z,23.53
2018-02-19T10:31:52.066Z,22.60
2018-02-19T10:34:20.582Z,22.87
2018-02-19T10:36:49.055Z,23.63
2018-02-19T10:39:17.562Z,24.60
2018-02-19T10:41:46.040Z,23.73
2018-02-19T10:44:14.564Z,21.83
2018-02-19T10:46:43.054Z,24.13
2018-02-19T10:49:11.592Z,20.43
2018-02-19T10:51:40.150Z,21.40
2018-02-19T10:54:08.687Z,21.17
2018-02-19T10:56:37.262Z,21.50
2018-02-19T10:59:05.768Z,21.03
2018-02-19T11:01:34.323Z,20.40
2018-02-19T11:04:02.833Z,20.20
2018-02-19T11:06:31.359Z,21.40
2018-02-19T11:08:59.811Z,21.57
2018-02-19T11:11:29.056Z,21.73
2018-02-19T11:13:57.538Z,20.53
2018-02-19T11:16:26.022Z,19.17
2018-02-19T11:18:54.536Z,18.63
2018-02-19T11:21:23.002Z,17.57
2018-02-19T11:23:51.515Z,17.70
2018-02-19T11:26:19.990Z,17.27
2018-02-19T11:28:48.541Z,17.40
2018-02-19T11:31:17.046Z,19.13
2018-02-19T11:33:45.573Z,17.77
2018-02-19T11:36:14.043Z,17.67
2018-02-19T11:38:42.613Z,17.60
2018-02-19T11:41:11.119Z,16.37
2018-02-19T11:43:39.710Z,17.13
2018-02-19T11:46:08.190Z,16.17
2018-02-19T11:48:36.696Z,16.90
2018-02-19T11:51:05.180Z,16.20
2018-02-19T11:53:33.687Z,16.23
2018-02-19T11:56:02.189Z,15.13
2018-02-19T11:58:30.703Z,14.90
2018-02-19T12:00:59.218Z,14.33
2018-02-19T12:03:27.682Z,14.90
2018-02-19T12:05:56.226Z,19.50
2018-02-19T12:08:24.746Z,21.40
2018-02-19T12:10:53.251Z,15.77
2018-02-19T12:13:21.723Z,16.37
2018-02-19T12:15:50.265Z,16.40
2018-02-19T12:18:18.730Z,16.37
2018-02-19T12:20:47.209Z,16.00
2018-02-19T12:23:15.722Z,16.83
2018-02-19T12:25:44.222Z,15.97
2018-02-19T12:28:12.738Z,16.83
2018-02-19T12:30:41.223Z,18.47
2018-02-19T12:33:09.734Z,22.13
2018-02-19T12:35:38.199Z,18.97
2018-02-19T12:38:06.708Z,17.13
2018-02-19T12:40:35.198Z,16.30
2018-02-19T12:43:03.701Z,15.37
2018-02-19T12:45:32.666Z,16.33
2018-02-19T12:48:01.198Z,17.57
2018-02-19T12:50:29.724Z,17.17
2018-02-19T12:52:58.257Z,16.97
2018-02-19T12:55:26.748Z,18.47
2018-02-19T12:57:55.255Z,16.07
2018-02-19T13:00:23.779Z,16.40
2018-02-19T13:02:52.313Z,17.23
2018-02-19T13:05:20.798Z,22.30
2018-02-19T13:07:49.327Z,20.20
2018-02-19T13:10:17.803Z,18.60
2018-02-19T13:12:46.296Z,19.73
2018-02-19T13:15:14.806Z,20.93
2018-02-19T13:17:43.314Z,20.33
2018-02-19T13:20:11.827Z,23.80
2018-02-19T13:22:40.368Z,20.93
2018-02-19T13:25:08.840Z,20.83
2018-02-19T13:27:37.346Z,23.33
2018-02-19T13:30:05.898Z,24.10
2018-02-19T13:32:34.405Z,25.33
2018-02-19T13:35:02.926Z,25.10
2018-02-19T13:37:31.387Z,23.40
2018-02-19T13:39:59.862Z,24.40
2018-02-19T13:42:28.374Z,21.60
2018-02-19T13:44:56.891Z,21.07
2018-02-19T13:47:25.436Z,20.87
2018-02-19T13:49:53.980Z,19.53
2018-02-19T13:52:22.468Z,18.77
2018-02-19T13:54:51.157Z,18.43
2018-02-19T13:57:19.715Z,19.73
2018-02-19T13:59:48.196Z,18.63
2018-02-19T14:02:16.738Z,19.87
2018-02-19T14:04:45.248Z,19.47
2018-02-19T14:07:13.705Z,18.70
2018-02-19T14:09:42.226Z,20.80
2018-02-19T14:12:10.694Z,18.80
2018-02-19T14:14:39.217Z,18.60
2018-02-19T14:17:07.698Z,17.97
2018-02-19T14:19:36.211Z,18.80
2018-02-19T14:22:04.790Z,18.83
2018-02-19T14:24:33.253Z,19.30
2018-02-19T14:27:01.742Z,20.43
2018-02-19T14:29:30.270Z,21.57
2018-02-19T14:31:58.745Z,20.67
2018-02-19T14:34:27.223Z,21.80
2018-02-19T14:36:55.754Z,20.87
2018-02-19T14:39:24.218Z,21.23
2018-02-19T14:41:52.741Z,20.80
2018-02-19T14:44:21.254Z,21.03
2018-02-19T14:46:49.813Z,19.00
2018-02-19T14:49:18.309Z,18.10
2018-02-19T14:51:46.818Z,18.47
2018-02-19T14:54:15.326Z,19.23
2018-02-19T14:56:43.795Z,18.57
2018-02-19T14:59:12.361Z,17.73
2018-02-19T15:01:40.862Z,19.30
2018-02-19T15:04:09.388Z,18.03
2018-02-19T15:06:37.871Z,16.20
2018-02-19T15:09:06.380Z,17.13
2018-02-19T15:11:34.845Z,17.27
2018-02-19T15:14:03.350Z,17.30
2018-02-19T15:16:31.814Z,18.13
2018-02-19T15:19:00.314Z,17.23
2018-02-19T15:21:28.823Z,17.93
2018-02-19T15:23:57.361Z,19.67
2018-02-19T15:26:25.870Z,19.00
2018-02-19T15:28:54.357Z,19.30
2018-02-19T15:31:22.898Z,21.17
2018-02-19T15:33:51.369Z,18.00
2018-02-19T15:36:19.846Z,16.80
2018-02-19T15:38:48.349Z,16.57
2018-02-19T15:41:16.849Z,14.13
2018-02-19T15:43:45.386Z,14.80
2018-02-19T15:46:13.855Z,15.57
2018-02-19T15:48:42.366Z,14.07
2018-02-19T15:51:10.834Z,12.43
2018-02-19T15:53:39.359Z,15.10
2018-02-19T15:56:07.821Z,11.73
2018-02-19T15:58:36.319Z,9.47
2018-02-19T16:01:04.815Z,11.23
2018-02-19T16:03:33.297Z,11.50
2018-02-19T16:06:01.795Z,9.70
2018-02-19T16:08:30.264Z,9.43
2018-02-19T16:10:58.805Z,9.93
2018-02-19T16:13:27.275Z,9.63
2018-02-19T16:15:55.774Z,10.30
2018-02-19T16:18:24.230Z,9.47
2018-02-19T16:20:52.725Z,10.17
2018-02-19T16:23:21.190Z,10.23
2018-02-19T16:25:49.708Z,9.50
2018-02-19T16:28:18.175Z,10.07
2018-02-19T16:30:46.677Z,8.47
2018-02-19T16:33:15.138Z,9.07
2018-02-19T16:35:43.638Z,9.47
2018-02-19T16:38:12.101Z,9.47
2018-02-19T16:40:40.606Z,8.67
2018-02-19T16:43:09.114Z,9.07
2018-02-19T16:45:37.582Z,10.03
2018-02-19T16:48:06.091Z,8.60
2018-02-19T16:50:34.566Z,9.30
2018-02-19T16:53:03.125Z,9.37
2018-02-19T16:55:31.586Z,9.77
2018-02-19T16:58:00.086Z,8.90
2018-02-19T17:00:28.523Z,9.67
2018-02-19T17:02:57.040Z,9.93
2018-02-19T17:05:25.506Z,10.47
2018-02-19T17:07:53.970Z,10.97
2018-02-19T17:10:22.470Z,11.00
2018-02-19T17:12:50.998Z,11.07
2018-02-19T17:15:19.472Z,10.60
2018-02-19T17:17:47.979Z,10.47
2018-02-19T17:20:16.478Z,12.10
2018-02-19T17:22:44.994Z,16.20
2018-02-19T17:25:13.463Z,11.63
2018-02-19T17:27:41.926Z,12.77
2018-02-19T17:30:10.426Z,12.97
2018-02-19T17:32:38.941Z,15.27
2018-02-19T17:35:07.462Z,16.40
2018-02-19T17:37:35.921Z,14.00
2018-02-19T17:40:04.438Z,15.93
2018-02-19T17:42:32.901Z,13.60
2018-02-19T17:45:01.421Z,13.87
2018-02-19T17:47:29.889Z,13.00
2018-02-19T17:49:58.410Z,13.40
2018-02-19T17:52:26.889Z,13.77
2018-02-19T17:54:55.391Z,13.23
2018-02-19T17:57:23.855Z,13.50
2018-02-19T17:59:52.359Z,11.63
2018-02-19T18:02:20.870Z,11.13
2018-02-19T18:04:49.381Z,11.03
2018-02-19T18:07:17.890Z,9.93
2018-02-19T18:09:46.360Z,10.37
2018-02-19T18:12:14.818Z,12.77
2018-02-19T18:14:43.321Z,13.67
2018-02-19T18:17:11.837Z,15.10
2018-02-19T18:19:40.302Z,13.70
2018-02-19T18:22:08.813Z,11.73
2018-02-19T18:24:37.319Z,14.43
2018-02-19T18:27:05.796Z,12.70
2018-02-19T18:29:34.304Z,10.43
2018-02-19T18:32:02.782Z,8.80
2018-02-19T18:34:31.294Z,9.33
2018-02-19T18:36:59.782Z,8.93
2018-02-19T18:39:28.245Z,12.17
2018-02-19T18:41:56.734Z,8.13
2018-02-19T18:44:25.187Z,8.50
2018-02-19T18:46:53.695Z,9.47
2018-02-19T18:49:22.212Z,10.33
2018-02-19T18:51:50.696Z,10.53
2018-02-19T18:54:19.191Z,9.73
2018-02-19T18:56:47.712Z,8.83
2018-02-19T18:59:16.155Z,7.13
2018-02-19T19:01:44.607Z,7.27
2018-02-19T19:04:13.102Z,7.37
2018-02-19T19:06:41.583Z,7.80
2018-02-19T19:09:21.866Z,8.10
2018-02-19T19:11:50.357Z,7.20
2018-02-19T19:14:18.823Z,8.90
2018-02-19T19:16:47.285Z,8.73
2018-02-19T19:19:15.788Z,8.00
2018-02-19T19:21:44.246Z,8.83
2018-02-19T19:24:12.694Z,7.27
2018-02-19T19:26:41.190Z,7.57
2018-02-19T19:29:09.646Z,6.17
2018-02-19T19:31:38.103Z,5.93
2018-02-19T19:34:06.614Z,6.97
2018-02-19T19:36:35.114Z,6.10
2018-02-19T19:39:03.660Z,6.63
2018-02-19T19:41:32.149Z,8.20
2018-02-19T19:44:00.617Z,7.17
2018-02-19T19:46:29.124Z,6.97
2018-02-19T19:48:57.638Z,7.40
2018-02-19T19:51:26.092Z,7.00
2018-02-19T19:53:54.628Z,5.63
2018-02-19T19:56:23.118Z,7.33
2018-02-19T19:58:51.566Z,5.70
2018-02-19T20:01:20.036Z,6.50
2018-02-19T20:03:48.558Z,5.60
2018-02-19T20:06:17.046Z,5.47
2018-02-19T20:08:45.513Z,6.67
2018-02-19T20:11:14.027Z,9.27
2018-02-19T20:13:42.531Z,9.67
2018-02-19T20:16:10.973Z,6.60
2018-02-19T20:18:39.454Z,7.10
2018-02-19T20:21:07.963Z,8.37
2018-02-19T20:23:36.474Z,8.10
2018-02-19T20:26:04.930Z,6.93
2018-02-19T20:28:33.447Z,6.37
2018-02-19T20:31:01.929Z,6.37
2018-02-19T20:33:30.424Z,6.60
2018-02-19T20:35:58.885Z,7.00
2018-02-19T20:38:27.369Z,7.53
2018-02-19T20:40:55.844Z,7.33
2018-02-19T20:43:24.326Z,8.20
2018-02-19T20:45:52.810Z,8.07
2018-02-19T20:48:21.306Z,7.90
2018-02-19T20:50:49.808Z,7.87
2018-02-19T20:53:18.320Z,7.87
2018-02-19T20:55:46.774Z,8.00
2018-02-19T20:58:15.229Z,8.17
2018-02-19T21:00:43.730Z,7.47
2018-02-19T21:03:12.194Z,7.47
2018-02-19T21:05:40.682Z,7.27
2018-02-19T21:08:09.133Z,6.50
2018-02-19T21:10:37.614Z,6.63
2018-02-19T21:13:06.090Z,6.50
2018-02-19T21:15:34.575Z,6.00
2018-02-19T21:18:03.031Z,5.97
2018-02-19T21:20:31.519Z,6.40
2018-02-19T21:22:59.986Z,6.73
2018-02-19T21:25:28.474Z,6.90
2018-02-19T21:27:56.981Z,7.37
2018-02-19T21:30:25.475Z,6.33
2018-02-19T21:32:53.926Z,7.23
2018-02-19T21:35:22.437Z,7.07
2018-02-19T21:37:50.893Z,7.13
2018-02-19T21:40:19.393Z,7.20
2018-02-19T21:42:47.858Z,6.80
2018-02-19T21:45:16.356Z,7.60
2018-02-19T21:47:44.860Z,7.93
2018-02-19T21:50:13.320Z,8.17
2018-02-19T21:52:41.814Z,7.43
2018-02-19T21:55:10.294Z,7.93
2018-02-19T21:57:38.782Z,8.13
2018-02-19T22:00:07.235Z,7.40
2018-02-19T22:02:35.754Z,8.50
2018-02-19T22:05:04.242Z,7.87
2018-02-19T22:07:32.690Z,7.43
2018-02-19T22:10:01.117Z,7.77
2018-02-19T22:12:29.525Z,8.43
2018-02-19T22:14:57.954Z,8.97
2018-02-19T22:17:26.378Z,8.73
2018-02-19T22:19:54.965Z,8.97
2018-02-19T22:22:23.361Z,9.00
2018-02-19T22:24:51.809Z,9.13
2018-02-19T22:27:20.209Z,10.47
2018-02-19T22:29:48.605Z,9.47
2018-02-19T22:32:17.085Z,10.67
2018-02-19T22:34:45.489Z,10.50
2018-02-19T22:37:13.933Z,10.70
2018-02-19T22:39:42.341Z,11.73
2018-02-19T22:42:10.780Z,11.07
2018-02-19T22:44:39.210Z,10.83
2018-02-19T22:47:07.653Z,12.57
2018-02-19T22:49:36.101Z,11.97
2018-02-19T22:52:04.511Z,13.27
2018-02-19T22:54:32.949Z,12.20
2018-02-19T22:57:01.385Z,12.67
2018-02-19T22:59:29.837Z,12.83
2018-02-19T23:01:58.237Z,13.47
2018-02-19T23:04:26.706Z,14.67
2018-02-19T23:06:55.113Z,13.93
2018-02-19T23:09:23.510Z,13.90
2018-02-19T23:11:51.969Z,14.50
2018-02-19T23:14:20.377Z,15.20
2018-02-19T23:16:48.817Z,15.20
2018-02-19T23:19:17.638Z,16.03
2018-02-19T23:21:46.579Z,15.67
2018-02-19T23:24:15.942Z,15.93
2018-02-19T23:26:44.428Z,16.57
2018-02-19T23:29:12.833Z,16.23
2018-02-19T23:31:41.281Z,17.73
2018-02-19T23:34:09.737Z,18.07
2018-02-19T23:36:38.568Z,17.53
2018-02-19T23:39:07.057Z,17.73
2018-02-19T23:41:35.505Z,16.57
2018-02-19T23:44:03.905Z,18.23
2018-02-19T23:46:32.361Z,18.30
2018-02-19T23:49:00.763Z,18.70
2018-02-19T23:51:29.213Z,18.00
2018-02-19T23:53:57.618Z,18.73
2018-02-19T23:56:26.077Z,18.83
2018-02-19T23:58:54.537Z,18.83
